NOAA Web Site Link Tides and Currents Home Page Transparent placeholder image

PORTS® Data Listing: 8551762 Delaware City, DE

CO-OPS RAW PORTS DATA

************************      PRELIMINARY DATA      ************************** 

     THIS RAW DATA HAS NOT BEEN SUBJECT TO THE NATIONAL OCEAN SERVICE'S        
     QUALITY CONTROL OR QUALITY ASSURANCE PROCEDURES AND DOES NOT MEET         
     THE CRITERIA AND STANDARDS OF OFFICIAL NATIONAL OCEAN SERVICE             
     DATA.  IT IS RELEASED FOR LIMITED PUBLIC USE AS PRELIMINARY DATA TO       
     BE USED ONLY WITH APPROPRIATE CAUTION.                                    

************************      PRELIMINARY DATA      ************************** 


       CD   -   Calendar date
       T    -   Time
       TZ   -   Timezone
       PW   -   Predicted water level (feet above MLLW)
       OW   -   Observed water level (feet above MLLW)
       WS   -   Wind speed (knots)
       WD   -   Wind direction (degrees true)
       WG   -   Wind gust (knots)
       AT   -   Air temperature (degrees farenheit)
       WT   -   Water temperature (degrees farenheit)
       AP   -   Air pressure (millibars)
       SA   -   Salinty (PSU - Practical Salinity Units)
       SG   -   Specific gravity
       RH   -   Relative humidity
       AG   -   Air gap (feet)
       VI   -   Visibility (nautical miles)

       ** NOTE **
       A variable that has its data fields filled with "9"s, indicates that
       data was not collected for that sample period.
       **********


STATION NAME: Delaware City (8551762)
****************************************************************************************************
    CD       T    TZ    PW     OW    WS   WD   WG    AT    WT    AP    SA    SG     RH    AG   VI
****************************************************************************************************
2018/08/17 23:48 EDT    0.91   1.03    3  202    4  80.4  77.7 1013.6 -9.9 -9.999 -99.9 -99.99 -9.99
2018/08/17 23:54 EDT    0.89   0.99    3  206    5  80.4  77.7 1013.7 -9.9 -9.999 -99.9 -99.99 -9.99
2018/08/18 00:00 EDT    0.89   0.96    2  203    4  80.2  77.7 1013.6 -9.9 -9.999 -99.9 -99.99 -9.99
2018/08/18 00:06 EDT    0.89   0.93    3  190    4  80.2  77.7 1013.6 -9.9 -9.999 -99.9 -99.99 -9.99
2018/08/18 00:12 EDT    0.90   0.92    4  192    5  80.2  77.7 1013.6 -9.9 -9.999 -99.9 -99.99 -9.99
2018/08/18 00:18 EDT    0.92   0.91    2  206    5  80.1  77.7 1013.6 -9.9 -9.999 -99.9 -99.99 -9.99
2018/08/18 00:24 EDT    0.96   0.90    2  217    4  79.9  77.7 1013.6 -9.9 -9.999 -99.9 -99.99 -9.99
2018/08/18 00:30 EDT    1.00   0.92    1  219    3  79.9  77.7 1013.6 -9.9 -9.999 -99.9 -99.99 -9.99
2018/08/18 00:36 EDT    1.05   0.97    5  304    6  79.9  77.5 1014.1 -9.9 -9.999 -99.9 -99.99 -9.99
2018/08/18 00:42 EDT    1.12   1.00    6  307    9  79.3  77.5 1014.3 -9.9 -9.999 -99.9 -99.99 -9.99
2018/08/18 00:48 EDT    1.19   1.07   11  307   15  80.4  77.5 1014.3 -9.9 -9.999 -99.9 -99.99 -9.99
2018/08/18 00:54 EDT    1.27   1.18   14  321   18  79.0  77.5 1014.3 -9.9 -9.999 -99.9 -99.99 -9.99
2018/08/18 01:00 EDT    1.36   1.30   12  315   18  76.3  77.5 1014.7 -9.9 -9.999 -99.9 -99.99 -9.99
2018/08/18 01:06 EDT    1.46   1.40   11  321   17  75.2  77.4 1014.5 -9.9 -9.999 -99.9 -99.99 -9.99
2018/08/18 01:12 EDT    1.56   1.53    9  323   14  75.2  77.4 1014.3 -9.9 -9.999 -99.9 -99.99 -9.99
2018/08/18 01:18 EDT    1.67   1.69    7  326    9  75.4  77.2 1014.1 -9.9 -9.999 -99.9 -99.99 -9.99
2018/08/18 01:24 EDT    1.79   1.86    6  329    7  75.4  77.2 1014.1 -9.9 -9.999 -99.9 -99.99 -9.99
2018/08/18 01:30 EDT    1.90   2.01    7  327    8  75.6  77.2 1014.1 -9.9 -9.999 -99.9 -99.99 -9.99
2018/08/18 01:36 EDT    2.03   2.16    5  331    8  75.6  77.0 1013.9 -9.9 -9.999 -99.9 -99.99 -9.99
2018/08/18 01:42 EDT    2.15   2.31    6  327    8  75.6  76.8 1014.0 -9.9 -9.999 -99.9 -99.99 -9.99
2018/08/18 01:48 EDT    2.27   2.47    6  331    8  75.4  77.0 1013.9 -9.9 -9.999 -99.9 -99.99 -9.99
2018/08/18 01:54 EDT    2.40   2.62    5  323    7  75.4  76.8 1013.8 -9.9 -9.999 -99.9 -99.99 -9.99
2018/08/18 02:00 EDT    2.53   2.79    6  326    7  75.7  76.8 1013.9 -9.9 -9.999 -99.9 -99.99 -9.99
2018/08/18 02:06 EDT    2.66   2.95    5  298    8  75.2  76.6 1014.1 -9.9 -9.999 -99.9 -99.99 -9.99
2018/08/18 02:12 EDT    2.78   3.11    5  326    7  75.0  76.6 1013.7 -9.9 -9.999 -99.9 -99.99 -9.99
2018/08/18 02:18 EDT    2.91   3.24    4  305    6  75.0  76.8 1013.7 -9.9 -9.999 -99.9 -99.99 -9.99
2018/08/18 02:24 EDT    3.03   3.39    1  268    4  74.5  76.8 1013.5 -9.9 -9.999 -99.9 -99.99 -9.99
2018/08/18 02:30 EDT    3.15   3.53    2  288    4  74.3  76.8 1013.4 -9.9 -9.999 -99.9 -99.99 -9.99
2018/08/18 02:36 EDT    3.27   3.66    4  326    5  75.2  76.8 1013.3 -9.9 -9.999 -99.9 -99.99 -9.99
2018/08/18 02:42 EDT    3.39   3.80    2  317    4  75.4  76.8 1013.2 -9.9 -9.999 -99.9 -99.99 -9.99
2018/08/18 02:48 EDT    3.51   3.94    1  253    2  74.5  76.8 1013.0 -9.9 -9.999 -99.9 -99.99 -9.99
2018/08/18 02:54 EDT    3.63   4.07    2  229    2  73.9  76.8 1012.9 -9.9 -9.999 -99.9 -99.99 -9.99
2018/08/18 03:00 EDT    3.74   4.20    2  213    2  73.9  77.0 1013.0 -9.9 -9.999 -99.9 -99.99 -9.99
2018/08/18 03:06 EDT    3.85   4.33    2  196    2  73.9  77.0 1013.0 -9.9 -9.999 -99.9 -99.99 -9.99
2018/08/18 03:12 EDT    3.96   4.46    2  195    3  73.8  77.0 1012.9 -9.9 -9.999 -99.9 -99.99 -9.99
2018/08/18 03:18 EDT    4.07   4.57    2  203    3  73.8  77.0 1012.9 -9.9 -9.999 -99.9 -99.99 -9.99
2018/08/18 03:24 EDT    4.18   4.70    2  198    3  73.8  77.0 1012.9 -9.9 -9.999 -99.9 -99.99 -9.99
2018/08/18 03:30 EDT    4.28   4.82    2  206    3  73.8  77.0 1012.9 -9.9 -9.999 -99.9 -99.99 -9.99
2018/08/18 03:36 EDT    4.39   4.93    3  192    4  73.8  77.2 1012.8 -9.9 -9.999 -99.9 -99.99 -9.99
2018/08/18 03:42 EDT    4.49   5.04    2  183    4  73.9  77.2 1012.8 -9.9 -9.999 -99.9 -99.99 -9.99
2018/08/18 03:48 EDT    4.59   5.14    1  182    3  73.9  77.2 1012.8 -9.9 -9.999 -99.9 -99.99 -9.99
2018/08/18 03:54 EDT    4.69   5.22    1  244    2  73.9  77.2 1012.9 -9.9 -9.999 -99.9 -99.99 -9.99
2018/08/18 04:00 EDT    4.79   5.33    1  272    2  73.9  77.2 1013.0 -9.9 -9.999 -99.9 -99.99 -9.99
2018/08/18 04:06 EDT    4.89   5.42    1  261    2  73.8  77.2 1013.0 -9.9 -9.999 -99.9 -99.99 -9.99
2018/08/18 04:12 EDT    4.98   5.50    1  233    2  73.6  77.2 1013.0 -9.9 -9.999 -99.9 -99.99 -9.99
2018/08/18 04:18 EDT    5.07   5.58    1  234    3  73.4  77.2 1013.0 -9.9 -9.999 -99.9 -99.99 -9.99
2018/08/18 04:24 EDT    5.15   5.66    1  247    3  73.6  77.2 1013.0 -9.9 -9.999 -99.9 -99.99 -9.99
2018/08/18 04:30 EDT    5.23   5.72    2  310    3  73.8  77.2 1013.1 -9.9 -9.999 -99.9 -99.99 -9.99
2018/08/18 04:36 EDT    5.31   5.77    3  297    4  73.8  77.2 1013.2 -9.9 -9.999 -99.9 -99.99 -9.99
2018/08/18 04:42 EDT    5.38   5.82    1  258    3  73.8  77.2 1013.0 -9.9 -9.999 -99.9 -99.99 -9.99
2018/08/18 04:48 EDT    5.45   5.87    2  243    2  73.4  77.2 1013.0 -9.9 -9.999 -99.9 -99.99 -9.99
2018/08/18 04:54 EDT    5.51   5.91    2  267    2  73.6  77.2 1013.0 -9.9 -9.999 -99.9 -99.99 -9.99
2018/08/18 05:00 EDT    5.56   5.95    2  267    3  73.6  77.4 1013.1 -9.9 -9.999 -99.9 -99.99 -9.99
2018/08/18 05:06 EDT    5.61   5.97    1  262    3  73.8  77.4 1012.9 -9.9 -9.999 -99.9 -99.99 -9.99
2018/08/18 05:12 EDT    5.65   6.00    1  236    2  73.9  77.4 1012.8 -9.9 -9.999 -99.9 -99.99 -9.99
2018/08/18 05:18 EDT    5.68   6.02    1  218    2  73.9  77.4 1012.8 -9.9 -9.999 -99.9 -99.99 -9.99
2018/08/18 05:24 EDT    5.70   6.02    1  242    2  74.3  77.4 1012.6 -9.9 -9.999 -99.9 -99.99 -9.99
2018/08/18 05:30 EDT    5.72   6.01    1  185    1  74.1  77.5 1012.5 -9.9 -9.999 -99.9 -99.99 -9.99
2018/08/18 05:36 EDT    5.72   6.02    2  218    2  73.9  77.5 1012.6 -9.9 -9.999 -99.9 -99.99 -9.99
2018/08/18 05:42 EDT    5.72   6.00    1  215    2  73.8  77.5 1012.6 -9.9 -9.999 -99.9 -99.99 -9.99
2018/08/18 05:48 EDT    5.71   5.99    1  198    2  73.6  77.5 1012.5 -9.9 -9.999 -99.9 -99.99 -9.99
2018/08/18 05:54 EDT    5.69   5.96    0  280    1  73.4  77.5 1012.5 -9.9 -9.999 -99.9 -99.99 -9.99
2018/08/18 06:00 EDT    5.66   5.91    0  280    0  73.4  77.5 1012.5 -9.9 -9.999 -99.9 -99.99 -9.99
2018/08/18 06:06 EDT    5.63   5.86    0  126    0  73.6  77.5 1012.3 -9.9 -9.999 -99.9 -99.99 -9.99
2018/08/18 06:12 EDT    5.59   5.80    1  162    2  73.6  77.5 1012.3 -9.9 -9.999 -99.9 -99.99 -9.99
2018/08/18 06:18 EDT    5.54   5.74    2  180    3  73.6  77.5 1012.3 -9.9 -9.999 -99.9 -99.99 -9.99
2018/08/18 06:24 EDT    5.48   5.66    3  206    3  74.1  77.5 1012.4 -9.9 -9.999 -99.9 -99.99 -9.99
2018/08/18 06:30 EDT    5.41   5.58    2  226    3  74.1  77.5 1012.4 -9.9 -9.999 -99.9 -99.99 -9.99
2018/08/18 06:36 EDT    5.34   5.48    2  243    3  73.8  77.4 1012.5 -9.9 -9.999 -99.9 -99.99 -9.99
2018/08/18 06:42 EDT    5.27   5.38    2  235    3  73.8  77.4 1012.5 -9.9 -9.999 -99.9 -99.99 -9.99
2018/08/18 06:48 EDT    5.19   5.29    2  239    3  73.8  77.4 1012.5 -9.9 -9.999 -99.9 -99.99 -9.99
2018/08/18 06:54 EDT    5.10   5.19    2  227    3  73.8  77.4 1012.5 -9.9 -9.999 -99.9 -99.99 -9.99
2018/08/18 07:00 EDT    5.01   5.09    3  224    3  73.9  77.4 1012.5 -9.9 -9.999 -99.9 -99.99 -9.99
2018/08/18 07:06 EDT    4.92   4.99    2  248    3  73.9  77.2 1012.6 -9.9 -9.999 -99.9 -99.99 -9.99
2018/08/18 07:12 EDT    4.82   4.87    2  266    3  73.9  77.2 1012.7 -9.9 -9.999 -99.9 -99.99 -9.99
2018/08/18 07:18 EDT    4.72   4.74    2  248    3  73.9  77.2 1012.8 -9.9 -9.999 -99.9 -99.99 -9.99
2018/08/18 07:24 EDT    4.62   4.66    1  230    3  73.9  77.0 1012.8 -9.9 -9.999 -99.9 -99.99 -9.99
2018/08/18 07:30 EDT    4.51   4.52    2  233    4  74.1  77.0 1012.8 -9.9 -9.999 -99.9 -99.99 -9.99
2018/08/18 07:36 EDT    4.41   4.40    2  227    4  74.1  77.4 1012.7 -9.9 -9.999 -99.9 -99.99 -9.99
2018/08/18 07:42 EDT    4.30   4.30    2  228    3  74.3  77.4 1012.6 -9.9 -9.999 -99.9 -99.99 -9.99
2018/08/18 07:48 EDT    4.19   4.17    2  194    3  74.3  77.0 1012.5 -9.9 -9.999 -99.9 -99.99 -9.99
2018/08/18 07:54 EDT    4.09   4.02    1  209    3  74.7  76.8 1012.5 -9.9 -9.999 -99.9 -99.99 -9.99
2018/08/18 08:00 EDT    3.98   3.91    1  221    3  74.7  76.8 1012.5 -9.9 -9.999 -99.9 -99.99 -9.99
2018/08/18 08:06 EDT    3.87   3.80    1  188    3  74.7  77.0 1012.4 -9.9 -9.999 -99.9 -99.99 -9.99
2018/08/18 08:12 EDT    3.77   3.67    1  206    2  74.7  77.2 1012.3 -9.9 -9.999 -99.9 -99.99 -9.99
2018/08/18 08:18 EDT    3.66   3.55    2  245    3  74.8  77.0 1012.4 -9.9 -9.999 -99.9 -99.99 -9.99
2018/08/18 08:24 EDT    3.56   3.41    2  187    3  74.8  77.0 1012.3 -9.9 -9.999 -99.9 -99.99 -9.99
2018/08/18 08:30 EDT    3.45   3.32    2  242    3  75.0  76.8 1012.4 -9.9 -9.999 -99.9 -99.99 -9.99
2018/08/18 08:36 EDT    3.35   3.22    4  237    7  75.0  76.8 1012.4 -9.9 -9.999 -99.9 -99.99 -9.99
2018/08/18 08:42 EDT    3.25   3.09    4  253    7  75.0  76.8 1012.5 -9.9 -9.999 -99.9 -99.99 -9.99
2018/08/18 08:48 EDT    3.15   2.99    4  260    7  75.0  76.8 1012.4 -9.9 -9.999 -99.9 -99.99 -9.99
2018/08/18 08:54 EDT    3.05   2.89    2  258    6  75.2  76.8 1012.5 -9.9 -9.999 -99.9 -99.99 -9.99
2018/08/18 09:00 EDT    2.95   2.79    5  260    7  75.2  76.8 1012.4 -9.9 -9.999 -99.9 -99.99 -9.99
2018/08/18 09:06 EDT    2.86   2.69    3  259    7  75.4  76.8 1012.4 -9.9 -9.999 -99.9 -99.99 -9.99
2018/08/18 09:12 EDT    2.76   2.60    5  259    8  75.7  76.8 1012.3 -9.9 -9.999 -99.9 -99.99 -9.99
2018/08/18 09:18 EDT    2.67   2.51    4  260    7  75.7  77.0 1012.3 -9.9 -9.999 -99.9 -99.99 -9.99
2018/08/18 09:24 EDT    2.58   2.42    3  253    5  76.5  76.8 1012.3 -9.9 -9.999 -99.9 -99.99 -9.99
2018/08/18 09:30 EDT    2.49   2.34    3  245    7  77.2  77.0 1012.2 -9.9 -9.999 -99.9 -99.99 -9.99
2018/08/18 09:36 EDT    2.40   2.26    3  260    8  77.9  76.8 1012.1 -9.9 -9.999 -99.9 -99.99 -9.99
2018/08/18 09:42 EDT    2.31   2.19    3  240    7  78.3  76.8 1012.1 -9.9 -9.999 -99.9 -99.99 -9.99
2018/08/18 09:48 EDT    2.23   2.11    3  241    6  79.2  77.0 1012.0 -9.9 -9.999 -99.9 -99.99 -9.99
2018/08/18 09:54 EDT    2.14   2.03    5  249    8  79.0  77.0 1012.1 -9.9 -9.999 -99.9 -99.99 -9.99
2018/08/18 10:00 EDT    2.05   1.95    3  268    8  79.7  77.0 1012.2 -9.9 -9.999 -99.9 -99.99 -9.99
2018/08/18 10:06 EDT    1.97   1.87    3  271    7  79.9  76.8 1012.1 -9.9 -9.999 -99.9 -99.99 -9.99
2018/08/18 10:12 EDT    1.88   1.79    6  278    9  80.1  77.0 1012.0 -9.9 -9.999 -99.9 -99.99 -9.99
2018/08/18 10:18 EDT    1.80   1.71    4  278    8  80.6  77.0 1012.0 -9.9 -9.999 -99.9 -99.99 -9.99
2018/08/18 10:24 EDT    1.71   1.64    4  281    6  81.0  77.0 1012.0 -9.9 -9.999 -99.9 -99.99 -9.99
2018/08/18 10:30 EDT    1.63   1.57    3  270    7  81.7  77.2 1012.0 -9.9 -9.999 -99.9 -99.99 -9.99
2018/08/18 10:36 EDT    1.54   1.49    4  276    6  81.9  77.2 1011.9 -9.9 -9.999 -99.9 -99.99 -9.99
2018/08/18 10:42 EDT    1.46   1.41    4  236    7  81.3  77.4 1012.0 -9.9 -9.999 -99.9 -99.99 -9.99
2018/08/18 10:48 EDT    1.37   1.34    6  236   10  81.5  77.4 1011.9 -9.9 -9.999 -99.9 -99.99 -9.99
2018/08/18 10:54 EDT    1.29   1.26    4  264    8  81.7  77.5 1011.9 -9.9 -9.999 -99.9 -99.99 -9.99
2018/08/18 11:00 EDT    1.21   1.20    4  210    6  82.4  77.7 1011.8 -9.9 -9.999 -99.9 -99.99 -9.99
2018/08/18 11:06 EDT    1.13   1.12    3  235    8  82.8  77.7 1011.8 -9.9 -9.999 -99.9 -99.99 -9.99
2018/08/18 11:12 EDT    1.06   1.05    5  223   10  82.0  77.7 1011.8 -9.9 -9.999 -99.9 -99.99 -9.99
2018/08/18 11:18 EDT    0.99   0.97    6  221    9  82.2  77.9 1011.8 -9.9 -9.999 -99.9 -99.99 -9.99
2018/08/18 11:24 EDT    0.92   0.88    4  225    9  82.8  77.9 1011.7 -9.9 -9.999 -99.9 -99.99 -9.99
2018/08/18 11:30 EDT    0.85   0.82    5  282   10  82.8  78.1 1011.7 -9.9 -9.999 -99.9 -99.99 -9.99
2018/08/18 11:36 EDT    0.79   0.77    4  246    7  83.1  77.9 1011.6 -9.9 -9.999 -99.9 -99.99 -9.99
2018/08/18 11:42 EDT    0.74   0.71    5  264    8  82.9  77.9 1011.6 -9.9 -9.999 -99.9 -99.99 -9.99
2018/08/18 11:48 EDT    0.69   0.67    4  254    8  83.5  77.4 1011.5 -9.9 -9.999 -99.9 -99.99 -9.99
2018/08/18 11:54 EDT    0.66   0.62    5  273    9  83.8  77.5 1011.5 -9.9 -9.999 -99.9 -99.99 -9.99
2018/08/18 12:00 EDT    0.62   0.58    5  249    9  84.0  77.7 1011.4 -9.9 -9.999 -99.9 -99.99 -9.99
2018/08/18 12:06 EDT    0.60   0.55    5  265   12  84.0  77.9 1011.3 -9.9 -9.999 -99.9 -99.99 -9.99
2018/08/18 12:12 EDT    0.59   0.54    6  261   10  84.4  77.7 1011.3 -9.9 -9.999 -99.9 -99.99 -9.99
2018/08/18 12:18 EDT    0.58   0.52    7  259   10  84.4  77.9 1011.2 -9.9 -9.999 -99.9 -99.99 -9.99
2018/08/18 12:24 EDT    0.59   0.54    5  269   11  84.2  77.5 1011.1 -9.9 -9.999 -99.9 -99.99 -9.99
2018/08/18 12:30 EDT    0.60   0.55    6  273   10  84.2  77.4 1011.0 -9.9 -9.999 -99.9 -99.99 -9.99
2018/08/18 12:36 EDT    0.63   0.61    5  271   10  84.2  77.2 1010.9 -9.9 -9.999 -99.9 -99.99 -9.99
2018/08/18 12:42 EDT    0.67   0.66    5  274   12  84.0  76.8 1010.9 -9.9 -9.999 -99.9 -99.99 -9.99
2018/08/18 12:48 EDT    0.71   0.71    5  275    8  83.7  76.8 1010.9 -9.9 -9.999 -99.9 -99.99 -9.99
2018/08/18 12:54 EDT    0.77   0.81    3  275    8  83.5  76.8 1010.9 -9.9 -9.999 -99.9 -99.99 -9.99
2018/08/18 13:00 EDT    0.84   0.86    5  286    9  83.5  76.6 1010.9 -9.9 -9.999 -99.9 -99.99 -9.99
2018/08/18 13:06 EDT    0.92   0.93    3  259   10  83.7  76.3 1010.8 -9.9 -9.999 -99.9 -99.99 -9.99
2018/08/18 13:12 EDT    1.00   1.07    4  246   10  83.3  76.1 1010.8 -9.9 -9.999 -99.9 -99.99 -9.99
2018/08/18 13:18 EDT    1.10   1.24    3  259    9  83.5  76.1 1010.8 -9.9 -9.999 -99.9 -99.99 -9.99
2018/08/18 13:24 EDT    1.20   1.37    5  257    9  83.1  75.9 1010.9 -9.9 -9.999 -99.9 -99.99 -9.99
2018/08/18 13:30 EDT    1.32   1.48    5  244    9  83.7  75.9 1010.9 -9.9 -9.999 -99.9 -99.99 -9.99
2018/08/18 13:36 EDT    1.43   1.65    4  270   10  84.4  75.9 1010.9 -9.9 -9.999 -99.9 -99.99 -9.99
2018/08/18 13:42 EDT    1.56   1.81    5  278   11  84.0  75.9 1010.8 -9.9 -9.999 -99.9 -99.99 -9.99
2018/08/18 13:48 EDT    1.68   1.96    3  259    8  84.6  76.1 1010.7 -9.9 -9.999 -99.9 -99.99 -9.99
2018/08/18 13:54 EDT    1.82   2.11    4  248    9  84.7  76.5 1010.7 -9.9 -9.999 -99.9 -99.99 -9.99
2018/08/18 14:00 EDT    1.95   2.28    4  264    9  84.6  76.5 1010.6 -9.9 -9.999 -99.9 -99.99 -9.99
2018/08/18 14:06 EDT    2.09   2.45    2  260    9  84.9  76.5 1010.6 -9.9 -9.999 -99.9 -99.99 -9.99
2018/08/18 14:12 EDT    2.23   2.60    6  236   10  84.7  76.6 1010.5 -9.9 -9.999 -99.9 -99.99 -9.99
2018/08/18 14:18 EDT    2.37   2.75    4  231   11  85.3  76.8 1010.4 -9.9 -9.999 -99.9 -99.99 -9.99
2018/08/18 14:24 EDT    2.51   2.91    5  260   11  85.1  77.0 1010.3 -9.9 -9.999 -99.9 -99.99 -9.99
2018/08/18 14:30 EDT    2.65   3.05    6  254   11  84.9  76.8 1010.2 -9.9 -9.999 -99.9 -99.99 -9.99
2018/08/18 14:36 EDT    2.79   3.20    9  262   12  84.6  77.2 1010.0 -9.9 -9.999 -99.9 -99.99 -9.99
2018/08/18 14:42 EDT    2.93   3.37    4  256   11  85.3  77.2 1010.0 -9.9 -9.999 -99.9 -99.99 -9.99
2018/08/18 14:48 EDT    3.07   3.51    6  247   10  85.3  77.2 1009.9 -9.9 -9.999 -99.9 -99.99 -9.99
2018/08/18 14:54 EDT    3.21   3.65    5  265   11  85.5  77.2 1009.8 -9.9 -9.999 -99.9 -99.99 -9.99
2018/08/18 15:00 EDT    3.34   3.79    5  264   11  85.6  77.0 1009.8 -9.9 -9.999 -99.9 -99.99 -9.99
2018/08/18 15:06 EDT    3.47   3.93    7  227   12  85.1  76.8 1009.7 -9.9 -9.999 -99.9 -99.99 -9.99
2018/08/18 15:12 EDT    3.60   4.08    6  255   12  84.7  76.8 1009.6 -9.9 -9.999 -99.9 -99.99 -9.99
2018/08/18 15:18 EDT    3.73   4.22    3  220    9  84.7  76.8 1009.6 -9.9 -9.999 -99.9 -99.99 -9.99
2018/08/18 15:24 EDT    3.86   4.34    5  259    9  84.4  76.6 1009.6 -9.9 -9.999 -99.9 -99.99 -9.99
2018/08/18 15:30 EDT    3.99   4.48    4  252    8  84.2  76.6 1009.6 -9.9 -9.999 -99.9 -99.99 -9.99
2018/08/18 15:36 EDT    4.11   4.62    3  252    7  84.0  76.6 1009.6 -9.9 -9.999 -99.9 -99.99 -9.99
2018/08/18 15:42 EDT    4.23   4.75    4  264    7  84.0  76.6 1009.5 -9.9 -9.999 -99.9 -99.99 -9.99
2018/08/18 15:48 EDT    4.35   4.88    3  247    6  84.0  77.0 1009.4 -9.9 -9.999 -99.9 -99.99 -9.99
2018/08/18 15:54 EDT    4.47   5.01    4  246    7  84.0  77.2 1009.2 -9.9 -9.999 -99.9 -99.99 -9.99
2018/08/18 16:00 EDT    4.59   5.14    4  245    7  84.2  77.4 1009.2 -9.9 -9.999 -99.9 -99.99 -9.99
2018/08/18 16:06 EDT    4.70   5.24    3  236    5  84.4  77.7 1009.1 -9.9 -9.999 -99.9 -99.99 -9.99
2018/08/18 16:12 EDT    4.82   5.35    2  214    5  84.9  77.7 1009.0 -9.9 -9.999 -99.9 -99.99 -9.99
2018/08/18 16:18 EDT    4.93   5.48    4  247    8  84.6  77.7 1009.1 -9.9 -9.999 -99.9 -99.99 -9.99
2018/08/18 16:24 EDT    5.04   5.58    5  238    9  84.4  77.7 1009.1 -9.9 -9.999 -99.9 -99.99 -9.99
2018/08/18 16:30 EDT    5.15   5.68    5  227    8  84.4  77.7 1009.0 -9.9 -9.999 -99.9 -99.99 -9.99
2018/08/18 16:36 EDT    5.25   5.78    6  233   11  84.2  78.1 1009.0 -9.9 -9.999 -99.9 -99.99 -9.99
2018/08/18 16:42 EDT    5.35   5.87    4  243    7  84.2  78.3 1008.9 -9.9 -9.999 -99.9 -99.99 -9.99
2018/08/18 16:48 EDT    5.45   5.96    4  232    9  84.0  78.3 1008.9 -9.9 -9.999 -99.9 -99.99 -9.99
2018/08/18 16:54 EDT    5.55   6.04    4  229   10  83.8  78.1 1008.9 -9.9 -9.999 -99.9 -99.99 -9.99
2018/08/18 17:00 EDT    5.64   6.12    4  231    7  83.8  78.1 1008.9 -9.9 -9.999 -99.9 -99.99 -9.99
2018/08/18 17:06 EDT    5.72   6.19    2  223    6  83.7  78.1 1008.9 -9.9 -9.999 -99.9 -99.99 -9.99
2018/08/18 17:12 EDT    5.80   6.26    3  221    5  83.7  78.1 1008.9 -9.9 -9.999 -99.9 -99.99 -9.99
2018/08/18 17:18 EDT    5.87   6.33    1  210    5  84.0  78.1 1008.8 -9.9 -9.999 -99.9 -99.99 -9.99
2018/08/18 17:24 EDT    5.94   6.39    3  223    6  83.7  77.9 1008.8 -9.9 -9.999 -99.9 -99.99 -9.99
2018/08/18 17:30 EDT    6.00   6.43    2  230    5  83.8  77.9 1008.9 -9.9 -9.999 -99.9 -99.99 -9.99
2018/08/18 17:36 EDT    6.05   6.46    1  259    4  84.0  77.9 1008.9 -9.9 -9.999 -99.9 -99.99 -9.99
2018/08/18 17:42 EDT    6.10   6.49    6  344    8  82.4  77.9 1009.0 -9.9 -9.999 -99.9 -99.99 -9.99
2018/08/18 17:48 EDT    6.13 -99.99 -999 -999 -999 -99.9 -99.9 -999.9 -9.9 -9.999 -99.9 -99.99 -9.99
2018/08/18 17:54 EDT    6.16 -99.99 -999 -999 -999 -99.9 -99.9 -999.9 -9.9 -9.999 -99.9 -99.99 -9.99
2018/08/18 18:00 EDT    6.18 -99.99 -999 -999 -999 -99.9 -99.9 -999.9 -9.9 -9.999 -99.9 -99.99 -9.99
2018/08/18 18:06 EDT    6.19 -99.99 -999 -999 -999 -99.9 -99.9 -999.9 -9.9 -9.999 -99.9 -99.99 -9.99
2018/08/18 18:12 EDT    6.19 -99.99 -999 -999 -999 -99.9 -99.9 -999.9 -9.9 -9.999 -99.9 -99.99 -9.99
2018/08/18 18:18 EDT    6.19 -99.99 -999 -999 -999 -99.9 -99.9 -999.9 -9.9 -9.999 -99.9 -99.99 -9.99
2018/08/18 18:24 EDT    6.17 -99.99 -999 -999 -999 -99.9 -99.9 -999.9 -9.9 -9.999 -99.9 -99.99 -9.99
2018/08/18 18:30 EDT    6.15 -99.99 -999 -999 -999 -99.9 -99.9 -999.9 -9.9 -9.999 -99.9 -99.99 -9.99
2018/08/18 18:36 EDT    6.12 -99.99 -999 -999 -999 -99.9 -99.9 -999.9 -9.9 -9.999 -99.9 -99.99 -9.99
2018/08/18 18:42 EDT    6.08 -99.99 -999 -999 -999 -99.9 -99.9 -999.9 -9.9 -9.999 -99.9 -99.99 -9.99
2018/08/18 18:48 EDT    6.04 -99.99 -999 -999 -999 -99.9 -99.9 -999.9 -9.9 -9.999 -99.9 -99.99 -9.99
2018/08/18 18:54 EDT    5.98 -99.99 -999 -999 -999 -99.9 -99.9 -999.9 -9.9 -9.999 -99.9 -99.99 -9.99
2018/08/18 19:00 EDT    5.92 -99.99 -999 -999 -999 -99.9 -99.9 -999.9 -9.9 -9.999 -99.9 -99.99 -9.99
2018/08/18 19:06 EDT    5.86 -99.99 -999 -999 -999 -99.9 -99.9 -999.9 -9.9 -9.999 -99.9 -99.99 -9.99
2018/08/18 19:12 EDT    5.79 -99.99 -999 -999 -999 -99.9 -99.9 -999.9 -9.9 -9.999 -99.9 -99.99 -9.99
2018/08/18 19:18 EDT    5.71 -99.99 -999 -999 -999 -99.9 -99.9 -999.9 -9.9 -9.999 -99.9 -99.99 -9.99
2018/08/18 19:24 EDT    5.63 -99.99 -999 -999 -999 -99.9 -99.9 -999.9 -9.9 -9.999 -99.9 -99.99 -9.99
2018/08/18 19:30 EDT    5.55 -99.99 -999 -999 -999 -99.9 -99.9 -999.9 -9.9 -9.999 -99.9 -99.99 -9.99
2018/08/18 19:36 EDT    5.46 -99.99 -999 -999 -999 -99.9 -99.9 -999.9 -9.9 -9.999 -99.9 -99.99 -9.99
2018/08/18 19:42 EDT    5.37 -99.99 -999 -999 -999 -99.9 -99.9 -999.9 -9.9 -9.999 -99.9 -99.99 -9.99
2018/08/18 19:48 EDT    5.28 -99.99 -999 -999 -999 -99.9 -99.9 -999.9 -9.9 -9.999 -99.9 -99.99 -9.99
2018/08/18 19:54 EDT    5.18 -99.99 -999 -999 -999 -99.9 -99.9 -999.9 -9.9 -9.999 -99.9 -99.99 -9.99
2018/08/18 20:00 EDT    5.08 -99.99 -999 -999 -999 -99.9 -99.9 -999.9 -9.9 -9.999 -99.9 -99.99 -9.99
2018/08/18 20:06 EDT    4.98 -99.99 -999 -999 -999 -99.9 -99.9 -999.9 -9.9 -9.999 -99.9 -99.99 -9.99
2018/08/18 20:12 EDT    4.88 -99.99 -999 -999 -999 -99.9 -99.9 -999.9 -9.9 -9.999 -99.9 -99.99 -9.99
2018/08/18 20:18 EDT    4.78 -99.99 -999 -999 -999 -99.9 -99.9 -999.9 -9.9 -9.999 -99.9 -99.99 -9.99
2018/08/18 20:24 EDT    4.68 -99.99 -999 -999 -999 -99.9 -99.9 -999.9 -9.9 -9.999 -99.9 -99.99 -9.99
2018/08/18 20:30 EDT    4.58 -99.99 -999 -999 -999 -99.9 -99.9 -999.9 -9.9 -9.999 -99.9 -99.99 -9.99
2018/08/18 20:36 EDT    4.48 -99.99 -999 -999 -999 -99.9 -99.9 -999.9 -9.9 -9.999 -99.9 -99.99 -9.99
2018/08/18 20:42 EDT    4.37 -99.99 -999 -999 -999 -99.9 -99.9 -999.9 -9.9 -9.999 -99.9 -99.99 -9.99
2018/08/18 20:48 EDT    4.27 -99.99 -999 -999 -999 -99.9 -99.9 -999.9 -9.9 -9.999 -99.9 -99.99 -9.99
2018/08/18 20:54 EDT    4.17 -99.99 -999 -999 -999 -99.9 -99.9 -999.9 -9.9 -9.999 -99.9 -99.99 -9.99
2018/08/18 21:00 EDT    4.07 -99.99 -999 -999 -999 -99.9 -99.9 -999.9 -9.9 -9.999 -99.9 -99.99 -9.99
2018/08/18 21:06 EDT    3.97 -99.99 -999 -999 -999 -99.9 -99.9 -999.9 -9.9 -9.999 -99.9 -99.99 -9.99
2018/08/18 21:12 EDT    3.88 -99.99 -999 -999 -999 -99.9 -99.9 -999.9 -9.9 -9.999 -99.9 -99.99 -9.99
2018/08/18 21:18 EDT    3.78 -99.99 -999 -999 -999 -99.9 -99.9 -999.9 -9.9 -9.999 -99.9 -99.99 -9.99
2018/08/18 21:24 EDT    3.68 -99.99 -999 -999 -999 -99.9 -99.9 -999.9 -9.9 -9.999 -99.9 -99.99 -9.99
2018/08/18 21:30 EDT    3.59 -99.99 -999 -999 -999 -99.9 -99.9 -999.9 -9.9 -9.999 -99.9 -99.99 -9.99
2018/08/18 21:36 EDT    3.49 -99.99 -999 -999 -999 -99.9 -99.9 -999.9 -9.9 -9.999 -99.9 -99.99 -9.99
2018/08/18 21:42 EDT    3.40 -99.99 -999 -999 -999 -99.9 -99.9 -999.9 -9.9 -9.999 -99.9 -99.99 -9.99
2018/08/18 21:48 EDT    3.31 -99.99 -999 -999 -999 -99.9 -99.9 -999.9 -9.9 -9.999 -99.9 -99.99 -9.99
2018/08/18 21:54 EDT    3.22 -99.99 -999 -999 -999 -99.9 -99.9 -999.9 -9.9 -9.999 -99.9 -99.99 -9.99
2018/08/18 22:00 EDT    3.12 -99.99 -999 -999 -999 -99.9 -99.9 -999.9 -9.9 -9.999 -99.9 -99.99 -9.99
2018/08/18 22:06 EDT    3.03 -99.99 -999 -999 -999 -99.9 -99.9 -999.9 -9.9 -9.999 -99.9 -99.99 -9.99
2018/08/18 22:12 EDT    2.94 -99.99 -999 -999 -999 -99.9 -99.9 -999.9 -9.9 -9.999 -99.9 -99.99 -9.99
2018/08/18 22:18 EDT    2.85 -99.99 -999 -999 -999 -99.9 -99.9 -999.9 -9.9 -9.999 -99.9 -99.99 -9.99
2018/08/18 22:24 EDT    2.76 -99.99 -999 -999 -999 -99.9 -99.9 -999.9 -9.9 -9.999 -99.9 -99.99 -9.99
2018/08/18 22:30 EDT    2.67 -99.99 -999 -999 -999 -99.9 -99.9 -999.9 -9.9 -9.999 -99.9 -99.99 -9.99
2018/08/18 22:36 EDT    2.58 -99.99 -999 -999 -999 -99.9 -99.9 -999.9 -9.9 -9.999 -99.9 -99.99 -9.99
2018/08/18 22:42 EDT    2.48 -99.99 -999 -999 -999 -99.9 -99.9 -999.9 -9.9 -9.999 -99.9 -99.99 -9.99
2018/08/18 22:48 EDT    2.39 -99.99 -999 -999 -999 -99.9 -99.9 -999.9 -9.9 -9.999 -99.9 -99.99 -9.99
2018/08/18 22:54 EDT    2.30 -99.99 -999 -999 -999 -99.9 -99.9 -999.9 -9.9 -9.999 -99.9 -99.99 -9.99
2018/08/18 23:00 EDT    2.21 -99.99 -999 -999 -999 -99.9 -99.9 -999.9 -9.9 -9.999 -99.9 -99.99 -9.99
2018/08/18 23:06 EDT    2.11 -99.99 -999 -999 -999 -99.9 -99.9 -999.9 -9.9 -9.999 -99.9 -99.99 -9.99
2018/08/18 23:12 EDT    2.02 -99.99 -999 -999 -999 -99.9 -99.9 -999.9 -9.9 -9.999 -99.9 -99.99 -9.99
2018/08/18 23:18 EDT    1.93 -99.99 -999 -999 -999 -99.9 -99.9 -999.9 -9.9 -9.999 -99.9 -99.99 -9.99
2018/08/18 23:24 EDT    1.83 -99.99 -999 -999 -999 -99.9 -99.9 -999.9 -9.9 -9.999 -99.9 -99.99 -9.99
2018/08/18 23:30 EDT    1.74 -99.99 -999 -999 -999 -99.9 -99.9 -999.9 -9.9 -9.999 -99.9 -99.99 -9.99
2018/08/18 23:36 EDT    1.65 -99.99 -999 -999 -999 -99.9 -99.9 -999.9 -9.9 -9.999 -99.9 -99.99 -9.99
2018/08/18 23:42 EDT    1.57 -99.99 -999 -999 -999 -99.9 -99.9 -999.9 -9.9 -9.999 -99.9 -99.99 -9.99
2018/08/18 23:48 EDT    1.48 -99.99 -999 -999 -999 -99.9 -99.9 -999.9 -9.9 -9.999 -99.9 -99.99 -9.99

Revised: 10/15/2013
NOAA / National Ocean Service
Web site owner: Center for Operational Oceanographic Products and Services